KMYF/MYF METAR and TAF weather

Enter ICAO airport designator
Station Type Date Time Source
KMYF METAR 2019/04/20 18:21 UTC NOAA

KMYF 201821Z 27010KT 10SM SCT028 19/09 A3001 RMK AO2 T01890094


Station Type Date Time Source
KMYF Decoded METAR 2019/04/20 18:21 UTC NOAA

SAN DIEGO MONTGOMERY FIELD, CA, United States (KMYF) 32-49N 117-08W 136M
Apr 20, 2019 - 02:21 PM EDT / 2019.04.20 1821 UTC
Wind: from the W (270 degrees) at 12 MPH (10 KT):0
Visibility: 10 mile(s):0
Sky conditions: partly cloudy
Temperature: 66.0 F (18.9 C)
Dew Point: 48.9 F (9.4 C)
Relative Humidity: 54%
Pressure (altimeter): 30.01 in. Hg (1016 hPa)
ob: KMYF 201821Z 27010KT 10SM SCT028 19/09 A3001 RMK AO2 T01890094
cycle: 18

Station Type Date Time Source
KMYF TAF UTC NOAA

Error!

Example: see airport list